sensor_id;sensor_type;location;lat;lon;timestamp;pressure;altitude;pressure_sealevel;temperature;humidity
48810;BME280;40070;47.322;18.784;2023-10-08T00:01:14;1004.16;;;19.57;47.89
48810;BME280;40070;47.322;18.784;2023-10-08T00:03:16;1004.14;;;19.58;47.50
48810;BME280;40070;47.322;18.784;2023-10-08T00:05:19;1004.11;;;19.58;46.89
48810;BME280;40070;47.322;18.784;2023-10-08T00:07:21;1004.12;;;19.51;48.01
48810;BME280;40070;47.322;18.784;2023-10-08T00:09:24;1004.06;;;19.60;48.02
48810;BME280;40070;47.322;18.784;2023-10-08T00:11:26;1004.02;;;19.55;48.62
48810;BME280;40070;47.322;18.784;2023-10-08T00:13:29;1003.92;;;19.71;49.06
48810;BME280;40070;47.322;18.784;2023-10-08T00:15:31;1003.90;;;19.76;49.41
48810;BME280;40070;47.322;18.784;2023-10-08T00:17:34;1003.88;;;19.52;51.08
48810;BME280;40070;47.322;18.784;2023-10-08T00:19:36;1003.85;;;19.51;51.12
48810;BME280;40070;47.322;18.784;2023-10-08T00:21:39;1003.89;;;19.50;51.62
48810;BME280;40070;47.322;18.784;2023-10-08T00:23:42;1003.89;;;19.48;51.92
48810;BME280;40070;47.322;18.784;2023-10-08T00:25:44;1003.88;;;19.48;51.77
48810;BME280;40070;47.322;18.784;2023-10-08T00:27:47;1003.83;;;19.58;51.86
48810;BME280;40070;47.322;18.784;2023-10-08T00:29:49;1003.81;;;19.62;51.39
48810;BME280;40070;47.322;18.784;2023-10-08T00:31:52;1003.81;;;19.54;51.96
48810;BME280;40070;47.322;18.784;2023-10-08T00:33:54;1003.81;;;19.63;51.60
48810;BME280;40070;47.322;18.784;2023-10-08T00:35:57;1003.82;;;19.44;51.85
48810;BME280;40070;47.322;18.784;2023-10-08T00:37:59;1003.80;;;19.46;51.54
48810;BME280;40070;47.322;18.784;2023-10-08T00:40:02;1003.82;;;19.50;50.52
48810;BME280;40070;47.322;18.784;2023-10-08T00:42:05;1003.77;;;19.40;50.48
48810;BME280;40070;47.322;18.784;2023-10-08T00:44:08;1003.76;;;19.37;50.45
48810;BME280;40070;47.322;18.784;2023-10-08T00:46:10;1003.74;;;19.41;50.54
48810;BME280;40070;47.322;18.784;2023-10-08T00:48:13;1003.64;;;19.32;50.54
48810;BME280;40070;47.322;18.784;2023-10-08T00:50:16;1003.59;;;19.40;50.44
48810;BME280;40070;47.322;18.784;2023-10-08T00:52:18;1003.63;;;19.33;51.02
48810;BME280;40070;47.322;18.784;2023-10-08T00:54:21;1003.56;;;19.26;51.33
48810;BME280;40070;47.322;18.784;2023-10-08T00:56:27;1003.52;;;19.23;51.04
48810;BME280;40070;47.322;18.784;2023-10-08T00:58:29;1003.53;;;19.20;50.61
48810;BME280;40070;47.322;18.784;2023-10-08T01:00:32;1003.49;;;19.24;50.42
48810;BME280;40070;47.322;18.784;2023-10-08T01:02:35;1003.44;;;19.32;50.31
48810;BME280;40070;47.322;18.784;2023-10-08T01:04:37;1003.49;;;19.32;50.11
48810;BME280;40070;47.322;18.784;2023-10-08T01:06:40;1003.51;;;19.30;50.67
48810;BME280;40070;47.322;18.784;2023-10-08T01:08:42;1003.44;;;19.33;49.99
48810;BME280;40070;47.322;18.784;2023-10-08T01:10:45;1003.34;;;19.48;50.02
48810;BME280;40070;47.322;18.784;2023-10-08T01:12:47;1003.34;;;19.25;50.63
48810;BME280;40070;47.322;18.784;2023-10-08T01:14:50;1003.34;;;19.33;50.53
48810;BME280;40070;47.322;18.784;2023-10-08T01:16:52;1003.33;;;19.37;50.49
48810;BME280;40070;47.322;18.784;2023-10-08T01:18:55;1003.30;;;19.44;50.56
48810;BME280;40070;47.322;18.784;2023-10-08T01:20:57;1003.34;;;19.51;50.17
48810;BME280;40070;47.322;18.784;2023-10-08T01:23:06;1003.39;;;19.39;50.85
48810;BME280;40070;47.322;18.784;2023-10-08T01:25:09;1003.32;;;19.39;50.67
48810;BME280;40070;47.322;18.784;2023-10-08T01:27:11;1003.28;;;19.42;50.60
48810;BME280;40070;47.322;18.784;2023-10-08T01:29:14;1003.27;;;19.25;51.17
48810;BME280;40070;47.322;18.784;2023-10-08T01:31:16;1003.27;;;19.28;51.30
48810;BME280;40070;47.322;18.784;2023-10-08T01:33:19;1003.34;;;19.16;51.42
48810;BME280;40070;47.322;18.784;2023-10-08T01:35:21;1003.25;;;19.05;51.41
48810;BME280;40070;47.322;18.784;2023-10-08T01:37:24;1003.25;;;18.93;51.70
48810;BME280;40070;47.322;18.784;2023-10-08T01:39:26;1003.26;;;19.03;51.76
48810;BME280;40070;47.322;18.784;2023-10-08T01:41:29;1003.14;;;18.75;52.63
48810;BME280;40070;47.322;18.784;2023-10-08T01:43:31;1003.07;;;18.81;51.85
48810;BME280;40070;47.322;18.784;2023-10-08T01:45:37;1003.05;;;18.95;52.16
48810;BME280;40070;47.322;18.784;2023-10-08T01:47:39;1003.01;;;18.85;52.29
48810;BME280;40070;47.322;18.784;2023-10-08T01:49:42;1003.10;;;18.77;52.87
48810;BME280;40070;47.322;18.784;2023-10-08T01:51:45;1003.08;;;18.70;52.68
48810;BME280;40070;47.322;18.784;2023-10-08T01:53:47;1003.06;;;18.74;52.70
48810;BME280;40070;47.322;18.784;2023-10-08T01:55:50;1003.02;;;18.57;52.68
48810;BME280;40070;47.322;18.784;2023-10-08T01:57:52;1003.06;;;18.76;52.49
48810;BME280;40070;47.322;18.784;2023-10-08T01:59:55;1003.03;;;18.57;52.70
48810;BME280;40070;47.322;18.784;2023-10-08T02:01:57;1002.99;;;18.70;52.10
48810;BME280;40070;47.322;18.784;2023-10-08T02:04:00;1003.06;;;18.53;51.94
48810;BME280;40070;47.322;18.784;2023-10-08T02:06:02;1003.03;;;18.40;52.62
48810;BME280;40070;47.322;18.784;2023-10-08T02:08:05;1003.13;;;18.41;52.58
48810;BME280;40070;47.322;18.784;2023-10-08T02:10:08;1003.13;;;18.39;52.04
48810;BME280;40070;47.322;18.784;2023-10-08T02:12:10;1003.14;;;18.29;52.64
48810;BME280;40070;47.322;18.784;2023-10-08T02:14:13;1003.12;;;18.18;53.03
48810;BME280;40070;47.322;18.784;2023-10-08T02:16:18;1003.13;;;18.34;52.91
48810;BME280;40070;47.322;18.784;2023-10-08T02:18:21;1003.14;;;18.14;53.15
48810;BME280;40070;47.322;18.784;2023-10-08T02:20:23;1003.13;;;18.14;53.42
48810;BME280;40070;47.322;18.784;2023-10-08T02:22:26;1003.11;;;18.08;53.02
48810;BME280;40070;47.322;18.784;2023-10-08T02:24:28;1003.12;;;18.04;53.73
48810;BME280;40070;47.322;18.784;2023-10-08T02:26:31;1003.06;;;18.16;53.14
48810;BME280;40070;47.322;18.784;2023-10-08T02:28:33;1002.99;;;18.19;52.78
48810;BME280;40070;47.322;18.784;2023-10-08T02:30:36;1002.99;;;18.24;51.96
48810;BME280;40070;47.322;18.784;2023-10-08T02:32:38;1003.02;;;18.20;52.33
48810;BME280;40070;47.322;18.784;2023-10-08T02:34:41;1003.03;;;18.17;50.15
48810;BME280;40070;47.322;18.784;2023-10-08T02:36:43;1003.01;;;18.31;49.89
48810;BME280;40070;47.322;18.784;2023-10-08T02:38:46;1002.96;;;18.37;50.36
48810;BME280;40070;47.322;18.784;2023-10-08T02:40:48;1002.90;;;18.50;50.20
48810;BME280;40070;47.322;18.784;2023-10-08T02:42:51;1002.85;;;18.47;49.29
48810;BME280;40070;47.322;18.784;2023-10-08T02:44:53;1002.83;;;18.59;50.05
48810;BME280;40070;47.322;18.784;2023-10-08T02:46:56;1002.79;;;18.61;49.51
48810;BME280;40070;47.322;18.784;2023-10-08T02:48:58;1002.79;;;18.55;49.28
48810;BME280;40070;47.322;18.784;2023-10-08T02:51:01;1002.74;;;18.37;49.24
48810;BME280;40070;47.322;18.784;2023-10-08T02:53:03;1002.71;;;18.52;50.07
48810;BME280;40070;47.322;18.784;2023-10-08T02:55:06;1002.73;;;18.51;49.54
48810;BME280;40070;47.322;18.784;2023-10-08T02:57:08;1002.74;;;18.51;49.89
48810;BME280;40070;47.322;18.784;2023-10-08T02:59:11;1002.72;;;18.37;49.53
48810;BME280;40070;47.322;18.784;2023-10-08T03:01:14;1002.66;;;18.49;49.59
48810;BME280;40070;47.322;18.784;2023-10-08T03:03:17;1002.63;;;18.47;48.58
48810;BME280;40070;47.322;18.784;2023-10-08T03:05:19;1002.63;;;18.55;48.58
48810;BME280;40070;47.322;18.784;2023-10-08T03:07:22;1002.65;;;18.69;47.18
48810;BME280;40070;47.322;18.784;2023-10-08T03:09:24;1002.62;;;18.71;47.36
48810;BME280;40070;47.322;18.784;2023-10-08T03:11:27;1002.59;;;18.94;46.21
48810;BME280;40070;47.322;18.784;2023-10-08T03:13:29;1002.55;;;19.02;46.04
48810;BME280;40070;47.322;18.784;2023-10-08T03:15:32;1002.54;;;19.15;46.01
48810;BME280;40070;47.322;18.784;2023-10-08T03:17:34;1002.55;;;19.20;45.82
48810;BME280;40070;47.322;18.784;2023-10-08T03:19:37;1002.62;;;19.25;45.31
48810;BME280;40070;47.322;18.784;2023-10-08T03:21:39;1002.61;;;19.29;45.30
48810;BME280;40070;47.322;18.784;2023-10-08T03:23:42;1002.48;;;19.43;45.38
48810;BME280;40070;47.322;18.784;2023-10-08T03:25:44;1002.45;;;19.42;45.23
48810;BME280;40070;47.322;18.784;2023-10-08T03:27:47;1002.42;;;19.44;45.63
48810;BME280;40070;47.322;18.784;2023-10-08T03:29:49;1002.34;;;19.40;46.11
48810;BME280;40070;47.322;18.784;2023-10-08T03:31:52;1002.39;;;19.46;45.29
48810;BME280;40070;47.322;18.784;2023-10-08T03:33:54;1002.39;;;19.45;45.24
48810;BME280;40070;47.322;18.784;2023-10-08T03:35:57;1002.41;;;19.44;45.03
48810;BME280;40070;47.322;18.784;2023-10-08T03:37:59;1002.41;;;19.68;44.50
48810;BME280;40070;47.322;18.784;2023-10-08T03:40:02;1002.40;;;19.71;44.44
48810;BME280;40070;47.322;18.784;2023-10-08T03:42:04;1002.44;;;19.64;44.73
48810;BME280;40070;47.322;18.784;2023-10-08T03:44:07;1002.48;;;19.74;44.78
48810;BME280;40070;47.322;18.784;2023-10-08T03:46:10;1002.46;;;19.72;45.18
48810;BME280;40070;47.322;18.784;2023-10-08T03:48:12;1002.38;;;19.69;45.44
48810;BME280;40070;47.322;18.784;2023-10-08T03:50:15;1002.30;;;19.64;45.39
48810;BME280;40070;47.322;18.784;2023-10-08T03:52:17;1002.19;;;19.64;45.55
48810;BME280;40070;47.322;18.784;2023-10-08T03:54:20;1002.17;;;19.65;45.44
48810;BME280;40070;47.322;18.784;2023-10-08T03:56:23;1002.15;;;19.64;45.50
48810;BME280;40070;47.322;18.784;2023-10-08T03:58:26;1002.21;;;19.53;45.42
48810;BME280;40070;47.322;18.784;2023-10-08T04:00:28;1002.23;;;19.60;45.87
48810;BME280;40070;47.322;18.784;2023-10-08T04:02:31;1002.25;;;19.59;45.38
48810;BME280;40070;47.322;18.784;2023-10-08T04:04:33;1002.37;;;19.51;45.93
48810;BME280;40070;47.322;18.784;2023-10-08T04:06:36;1002.37;;;19.43;45.60
48810;BME280;40070;47.322;18.784;2023-10-08T04:08:38;1002.42;;;19.52;45.78
48810;BME280;40070;47.322;18.784;2023-10-08T04:10:41;1002.38;;;19.53;45.60
48810;BME280;40070;47.322;18.784;2023-10-08T04:12:43;1002.34;;;19.46;45.64
48810;BME280;40070;47.322;18.784;2023-10-08T04:14:46;1002.30;;;19.48;45.43
48810;BME280;40070;47.322;18.784;2023-10-08T04:16:48;1002.27;;;19.52;45.47
48810;BME280;40070;47.322;18.784;2023-10-08T04:18:51;1002.24;;;19.50;45.49
48810;BME280;40070;47.322;18.784;2023-10-08T04:20:53;1002.28;;;19.52;45.33
48810;BME280;40070;47.322;18.784;2023-10-08T04:22:56;1002.15;;;19.57;45.57
48810;BME280;40070;47.322;18.784;2023-10-08T04:24:59;1002.17;;;19.74;45.38
48810;BME280;40070;47.322;18.784;2023-10-08T04:27:01;1002.13;;;19.63;45.32
48810;BME280;40070;47.322;18.784;2023-10-08T04:29:04;1002.15;;;19.60;45.63
48810;BME280;40070;47.322;18.784;2023-10-08T04:31:07;1002.23;;;19.65;45.37
48810;BME280;40070;47.322;18.784;2023-10-08T04:33:09;1002.24;;;19.66;45.05
48810;BME280;40070;47.322;18.784;2023-10-08T04:35:12;1002.23;;;19.73;45.18
48810;BME280;40070;47.322;18.784;2023-10-08T04:37:14;1002.31;;;19.74;45.17
48810;BME280;40070;47.322;18.784;2023-10-08T04:39:17;1002.30;;;19.77;45.16
48810;BME280;40070;47.322;18.784;2023-10-08T04:41:19;1002.28;;;19.85;45.01
48810;BME280;40070;47.322;18.784;2023-10-08T04:43:23;1002.27;;;19.75;44.94
48810;BME280;40070;47.322;18.784;2023-10-08T04:45:25;1002.26;;;19.67;45.57
48810;BME280;40070;47.322;18.784;2023-10-08T04:47:28;1002.24;;;19.80;45.46
48810;BME280;40070;47.322;18.784;2023-10-08T04:49:31;1002.28;;;19.84;45.44
48810;BME280;40070;47.322;18.784;2023-10-08T04:51:33;1002.31;;;19.78;45.50
48810;BME280;40070;47.322;18.784;2023-10-08T04:53:36;1002.40;;;19.72;46.16
48810;BME280;40070;47.322;18.784;2023-10-08T04:55:38;1002.34;;;19.59;46.01
48810;BME280;40070;47.322;18.784;2023-10-08T04:57:41;1002.36;;;19.41;47.34
48810;BME280;40070;47.322;18.784;2023-10-08T04:59:43;1002.34;;;19.37;48.70
48810;BME280;40070;47.322;18.784;2023-10-08T05:01:46;1002.36;;;19.49;47.65
48810;BME280;40070;47.322;18.784;2023-10-08T05:03:49;1002.38;;;19.47;47.93
48810;BME280;40070;47.322;18.784;2023-10-08T05:05:52;1002.33;;;19.49;47.92
48810;BME280;40070;47.322;18.784;2023-10-08T05:07:54;1002.36;;;19.46;46.92
48810;BME280;40070;47.322;18.784;2023-10-08T05:09:57;1002.37;;;19.46;47.17
48810;BME280;40070;47.322;18.784;2023-10-08T05:11:59;1002.38;;;19.56;46.72
48810;BME280;40070;47.322;18.784;2023-10-08T05:14:02;1002.32;;;19.45;46.11
48810;BME280;40070;47.322;18.784;2023-10-08T05:16:04;1002.32;;;19.58;45.74
48810;BME280;40070;47.322;18.784;2023-10-08T05:18:07;1002.36;;;19.66;45.82
48810;BME280;40070;47.322;18.784;2023-10-08T05:20:10;1002.33;;;19.70;45.58
48810;BME280;40070;47.322;18.784;2023-10-08T05:22:13;1002.35;;;19.66;45.81
48810;BME280;40070;47.322;18.784;2023-10-08T05:24:16;1002.29;;;19.59;45.75
48810;BME280;40070;47.322;18.784;2023-10-08T05:26:18;1002.28;;;19.56;44.89
48810;BME280;40070;47.322;18.784;2023-10-08T05:28:21;1002.33;;;19.63;45.20
48810;BME280;40070;47.322;18.784;2023-10-08T05:30:27;1002.40;;;19.68;45.22
48810;BME280;40070;47.322;18.784;2023-10-08T05:32:29;1002.37;;;19.67;44.45
48810;BME280;40070;47.322;18.784;2023-10-08T05:34:32;1002.40;;;19.69;44.81
48810;BME280;40070;47.322;18.784;2023-10-08T05:36:34;1002.39;;;19.68;44.76
48810;BME280;40070;47.322;18.784;2023-10-08T05:38:37;1002.36;;;19.62;44.79
48810;BME280;40070;47.322;18.784;2023-10-08T05:40:41;1002.37;;;19.73;44.42
48810;BME280;40070;47.322;18.784;2023-10-08T05:42:44;1002.40;;;19.88;44.37
48810;BME280;40070;47.322;18.784;2023-10-08T05:44:47;1002.42;;;19.93;44.42
48810;BME280;40070;47.322;18.784;2023-10-08T05:46:50;1002.40;;;20.14;43.93
48810;BME280;40070;47.322;18.784;2023-10-08T05:48:53;1002.41;;;20.36;43.48
48810;BME280;40070;47.322;18.784;2023-10-08T05:50:55;1002.44;;;20.43;43.27
48810;BME280;40070;47.322;18.784;2023-10-08T05:53:08;1002.38;;;20.51;43.15
48810;BME280;40070;47.322;18.784;2023-10-08T05:55:10;1002.38;;;20.73;42.73
48810;BME280;40070;47.322;18.784;2023-10-08T05:57:13;1002.37;;;20.78;42.55
48810;BME280;40070;47.322;18.784;2023-10-08T05:59:15;1002.45;;;20.76;42.63
48810;BME280;40070;47.322;18.784;2023-10-08T06:01:18;1002.46;;;20.86;42.58
48810;BME280;40070;47.322;18.784;2023-10-08T06:03:20;1002.53;;;20.92;42.63
48810;BME280;40070;47.322;18.784;2023-10-08T06:05:23;1002.47;;;20.93;42.97
48810;BME280;40070;47.322;18.784;2023-10-08T06:07:25;1002.55;;;20.97;42.79
48810;BME280;40070;47.322;18.784;2023-10-08T06:09:28;1002.61;;;21.05;42.61
48810;BME280;40070;47.322;18.784;2023-10-08T06:11:33;1002.59;;;21.04;42.57
48810;BME280;40070;47.322;18.784;2023-10-08T06:13:35;1002.60;;;21.05;42.80
48810;BME280;40070;47.322;18.784;2023-10-08T06:17:55;1002.68;;;21.03;42.96
48810;BME280;40070;47.322;18.784;2023-10-08T06:19:58;1002.75;;;20.98;42.91
48810;BME280;40070;47.322;18.784;2023-10-08T06:22:00;1002.79;;;21.09;42.84
48810;BME280;40070;47.322;18.784;2023-10-08T06:24:03;1002.77;;;21.19;42.84
48810;BME280;40070;47.322;18.784;2023-10-08T06:26:06;1002.76;;;21.25;42.72
48810;BME280;40070;47.322;18.784;2023-10-08T06:28:08;1002.71;;;21.18;43.01
48810;BME280;40070;47.322;18.784;2023-10-08T06:30:11;1002.75;;;21.13;42.89
48810;BME280;40070;47.322;18.784;2023-10-08T06:32:14;1002.68;;;21.20;42.61
48810;BME280;40070;47.322;18.784;2023-10-08T06:34:17;1002.76;;;21.25;42.72
48810;BME280;40070;47.322;18.784;2023-10-08T06:36:19;1002.73;;;21.30;42.48
48810;BME280;40070;47.322;18.784;2023-10-08T06:38:22;1002.77;;;21.22;42.44
48810;BME280;40070;47.322;18.784;2023-10-08T06:40:24;1002.79;;;21.29;42.38
48810;BME280;40070;47.322;18.784;2023-10-08T06:42:27;1002.89;;;21.31;42.12
48810;BME280;40070;47.322;18.784;2023-10-08T06:44:29;1002.91;;;21.38;42.20
48810;BME280;40070;47.322;18.784;2023-10-08T06:46:32;1002.93;;;21.44;42.25
48810;BME280;40070;47.322;18.784;2023-10-08T06:48:34;1003.00;;;21.47;42.40
48810;BME280;40070;47.322;18.784;2023-10-08T06:50:37;1002.92;;;21.56;42.30
48810;BME280;40070;47.322;18.784;2023-10-08T06:52:39;1002.98;;;21.51;42.41
48810;BME280;40070;47.322;18.784;2023-10-08T06:54:42;1002.88;;;21.53;42.14
48810;BME280;40070;47.322;18.784;2023-10-08T06:56:44;1003.00;;;21.58;42.21
48810;BME280;40070;47.322;18.784;2023-10-08T06:58:47;1003.06;;;21.62;42.20
48810;BME280;40070;47.322;18.784;2023-10-08T07:00:51;1003.06;;;21.63;41.90
48810;BME280;40070;47.322;18.784;2023-10-08T07:02:54;1002.99;;;21.83;42.08
48810;BME280;40070;47.322;18.784;2023-10-08T07:04:56;1002.94;;;21.90;41.71
48810;BME280;40070;47.322;18.784;2023-10-08T07:06:59;1002.86;;;22.05;41.63
48810;BME280;40070;47.322;18.784;2023-10-08T07:09:01;1002.87;;;22.00;41.90
48810;BME280;40070;47.322;18.784;2023-10-08T07:11:04;1002.81;;;21.89;42.07
48810;BME280;40070;47.322;18.784;2023-10-08T07:13:07;1002.77;;;21.90;42.02
48810;BME280;40070;47.322;18.784;2023-10-08T07:15:09;1002.87;;;21.86;41.94
48810;BME280;40070;47.322;18.784;2023-10-08T07:17:12;1003.01;;;21.79;42.23
48810;BME280;40070;47.322;18.784;2023-10-08T07:19:14;1002.96;;;21.80;42.58
48810;BME280;40070;47.322;18.784;2023-10-08T07:21:17;1002.84;;;21.81;42.75
48810;BME280;40070;47.322;18.784;2023-10-08T07:23:22;1002.82;;;21.78;43.20
48810;BME280;40070;47.322;18.784;2023-10-08T07:25:25;1002.77;;;21.81;42.92
48810;BME280;40070;47.322;18.784;2023-10-08T07:27:28;1002.79;;;21.82;43.20
48810;BME280;40070;47.322;18.784;2023-10-08T07:29:30;1002.88;;;21.91;43.27
48810;BME280;40070;47.322;18.784;2023-10-08T07:31:32;1002.85;;;21.88;43.20
48810;BME280;40070;47.322;18.784;2023-10-08T07:33:35;1002.85;;;21.93;43.20
48810;BME280;40070;47.322;18.784;2023-10-08T07:35:37;1002.86;;;22.01;43.11
48810;BME280;40070;47.322;18.784;2023-10-08T07:37:40;1003.00;;;22.03;43.46
48810;BME280;40070;47.322;18.784;2023-10-08T07:39:42;1002.97;;;21.97;43.36
48810;BME280;40070;47.322;18.784;2023-10-08T07:41:45;1002.94;;;21.93;43.41
48810;BME280;40070;47.322;18.784;2023-10-08T07:43:48;1002.99;;;21.84;43.41
48810;BME280;40070;47.322;18.784;2023-10-08T07:45:50;1003.01;;;21.87;42.99
48810;BME280;40070;47.322;18.784;2023-10-08T07:47:53;1003.04;;;21.96;42.86
48810;BME280;40070;47.322;18.784;2023-10-08T07:49:56;1002.94;;;22.13;42.69
48810;BME280;40070;47.322;18.784;2023-10-08T07:51:58;1002.91;;;22.24;43.02
48810;BME280;40070;47.322;18.784;2023-10-08T07:54:01;1002.81;;;22.20;42.11
48810;BME280;40070;47.322;18.784;2023-10-08T07:56:06;1002.82;;;22.13;42.37
48810;BME280;40070;47.322;18.784;2023-10-08T07:58:08;1002.77;;;22.12;42.58
48810;BME280;40070;47.322;18.784;2023-10-08T08:00:11;1002.81;;;22.14;42.63
48810;BME280;40070;47.322;18.784;2023-10-08T08:02:14;1002.82;;;22.28;42.55
48810;BME280;40070;47.322;18.784;2023-10-08T08:04:17;1002.80;;;22.36;42.27
48810;BME280;40070;47.322;18.784;2023-10-08T08:06:20;1002.75;;;22.42;42.47
48810;BME280;40070;47.322;18.784;2023-10-08T08:08:22;1002.84;;;22.19;43.02
48810;BME280;40070;47.322;18.784;2023-10-08T08:10:25;1002.83;;;22.20;43.17
48810;BME280;40070;47.322;18.784;2023-10-08T08:12:28;1003.01;;;22.30;43.34
48810;BME280;40070;47.322;18.784;2023-10-08T08:14:30;1002.96;;;22.17;43.59
48810;BME280;40070;47.322;18.784;2023-10-08T08:16:33;1002.89;;;22.28;43.75
48810;BME280;40070;47.322;18.784;2023-10-08T08:18:36;1002.82;;;22.18;43.77
48810;BME280;40070;47.322;18.784;2023-10-08T08:20:39;1002.88;;;22.19;43.99
48810;BME280;40070;47.322;18.784;2023-10-08T08:22:41;1002.90;;;22.11;44.17
48810;BME280;40070;47.322;18.784;2023-10-08T08:24:44;1002.97;;;22.10;44.48
48810;BME280;40070;47.322;18.784;2023-10-08T08:26:46;1003.02;;;22.17;44.55
48810;BME280;40070;47.322;18.784;2023-10-08T08:28:49;1002.92;;;22.14;44.42
48810;BME280;40070;47.322;18.784;2023-10-08T08:30:52;1002.79;;;22.15;44.38
48810;BME280;40070;47.322;18.784;2023-10-08T08:32:54;1002.89;;;22.11;44.58
48810;BME280;40070;47.322;18.784;2023-10-08T08:34:57;1002.77;;;22.12;44.63
48810;BME280;40070;47.322;18.784;2023-10-08T08:36:59;1002.79;;;22.24;44.60
48810;BME280;40070;47.322;18.784;2023-10-08T08:39:02;1002.84;;;22.26;44.63
48810;BME280;40070;47.322;18.784;2023-10-08T08:41:04;1002.73;;;22.24;44.59
48810;BME280;40070;47.322;18.784;2023-10-08T08:43:07;1002.67;;;22.26;44.60
48810;BME280;40070;47.322;18.784;2023-10-08T08:45:10;1002.72;;;22.31;44.46
48810;BME280;40070;47.322;18.784;2023-10-08T08:47:14;1002.66;;;22.36;44.45
48810;BME280;40070;47.322;18.784;2023-10-08T08:49:17;1002.72;;;22.56;44.30
48810;BME280;40070;47.322;18.784;2023-10-08T08:51:20;1002.73;;;22.43;44.54
48810;BME280;40070;47.322;18.784;2023-10-08T08:53:22;1002.85;;;22.45;44.58
48810;BME280;40070;47.322;18.784;2023-10-08T08:55:25;1002.84;;;22.61;44.52
48810;BME280;40070;47.322;18.784;2023-10-08T08:57:28;1002.95;;;22.74;44.13
48810;BME280;40070;47.322;18.784;2023-10-08T08:59:31;1003.04;;;22.61;44.50
48810;BME280;40070;47.322;18.784;2023-10-08T09:01:34;1003.04;;;22.52;44.97
48810;BME280;40070;47.322;18.784;2023-10-08T09:03:36;1003.08;;;22.49;45.09
48810;BME280;40070;47.322;18.784;2023-10-08T09:05:39;1002.96;;;22.37;45.08
48810;BME280;40070;47.322;18.784;2023-10-08T09:07:57;1002.95;;;22.30;45.34
48810;BME280;40070;47.322;18.784;2023-10-08T09:10:00;1003.23;;;22.32;45.42
48810;BME280;40070;47.322;18.784;2023-10-08T09:12:02;1003.08;;;22.34;45.56
48810;BME280;40070;47.322;18.784;2023-10-08T09:14:07;1003.29;;;22.30;45.54
48810;BME280;40070;47.322;18.784;2023-10-08T09:16:13;1003.16;;;22.21;45.79
48810;BME280;40070;47.322;18.784;2023-10-08T09:18:16;1003.24;;;22.23;45.74
48810;BME280;40070;47.322;18.784;2023-10-08T09:20:19;1003.26;;;22.30;45.75
48810;BME280;40070;47.322;18.784;2023-10-08T09:22:21;1003.28;;;22.40;45.67
48810;BME280;40070;47.322;18.784;2023-10-08T09:24:24;1003.20;;;22.51;45.37
48810;BME280;40070;47.322;18.784;2023-10-08T09:26:26;1003.21;;;22.54;45.41
48810;BME280;40070;47.322;18.784;2023-10-08T09:28:30;1003.31;;;22.70;45.41
48810;BME280;40070;47.322;18.784;2023-10-08T09:30:36;1003.40;;;22.65;45.03
48810;BME280;40070;47.322;18.784;2023-10-08T09:32:39;1003.50;;;22.62;45.27
48810;BME280;40070;47.322;18.784;2023-10-08T09:34:41;1003.60;;;22.65;45.39
48810;BME280;40070;47.322;18.784;2023-10-08T09:36:44;1003.67;;;22.53;45.38
48810;BME280;40070;47.322;18.784;2023-10-08T09:38:47;1003.67;;;22.37;45.81
48810;BME280;40070;47.322;18.784;2023-10-08T09:40:51;1003.69;;;22.35;45.87
48810;BME280;40070;47.322;18.784;2023-10-08T09:42:54;1003.80;;;22.37;45.92
48810;BME280;40070;47.322;18.784;2023-10-08T09:44:57;1003.81;;;22.33;46.18
48810;BME280;40070;47.322;18.784;2023-10-08T09:47:02;1003.77;;;22.33;46.00
48810;BME280;40070;47.322;18.784;2023-10-08T09:49:04;1003.76;;;22.18;46.09
48810;BME280;40070;47.322;18.784;2023-10-08T09:51:07;1003.68;;;22.28;46.08
48810;BME280;40070;47.322;18.784;2023-10-08T09:53:13;1003.69;;;22.28;45.96
48810;BME280;40070;47.322;18.784;2023-10-08T09:55:15;1003.77;;;22.50;45.84
48810;BME280;40070;47.322;18.784;2023-10-08T09:57:20;1003.88;;;22.57;45.73
48810;BME280;40070;47.322;18.784;2023-10-08T09:59:23;1003.82;;;22.67;45.83
48810;BME280;40070;47.322;18.784;2023-10-08T10:01:25;1003.73;;;22.76;45.51
48810;BME280;40070;47.322;18.784;2023-10-08T10:03:28;1003.80;;;22.78;45.63
48810;BME280;40070;47.322;18.784;2023-10-08T10:05:34;1003.80;;;22.85;45.94
48810;BME280;40070;47.322;18.784;2023-10-08T10:07:36;1003.82;;;23.02;45.47
48810;BME280;40070;47.322;18.784;2023-10-08T10:09:39;1003.92;;;23.05;45.86
48810;BME280;40070;47.322;18.784;2023-10-08T10:11:48;1004.00;;;22.78;46.35
48810;BME280;40070;47.322;18.784;2023-10-08T10:13:51;1004.01;;;22.59;47.06
48810;BME280;40070;47.322;18.784;2023-10-08T10:16:00;1004.00;;;22.40;47.82
48810;BME280;40070;47.322;18.784;2023-10-08T10:18:17;1004.22;;;22.22;48.70
48810;BME280;40070;47.322;18.784;2023-10-08T10:20:25;1004.24;;;22.20;49.39
48810;BME280;40070;47.322;18.784;2023-10-08T10:22:28;1004.27;;;22.02;50.23
48810;BME280;40070;47.322;18.784;2023-10-08T10:24:35;1004.43;;;21.78;50.73
48810;BME280;40070;47.322;18.784;2023-10-08T10:26:38;1004.64;;;21.76;51.34
48810;BME280;40070;47.322;18.784;2023-10-08T10:28:40;1004.62;;;21.77;51.15
48810;BME280;40070;47.322;18.784;2023-10-08T10:30:43;1004.72;;;21.39;52.23
48810;BME280;40070;47.322;18.784;2023-10-08T10:32:46;1004.80;;;21.26;52.66
48810;BME280;40070;47.322;18.784;2023-10-08T10:34:48;1004.81;;;21.22;52.47
48810;BME280;40070;47.322;18.784;2023-10-08T10:36:51;1004.67;;;21.14;52.40
48810;BME280;40070;47.322;18.784;2023-10-08T10:38:53;1004.66;;;21.08;52.18
48810;BME280;40070;47.322;18.784;2023-10-08T10:40:56;1004.63;;;21.12;51.51
48810;BME280;40070;47.322;18.784;2023-10-08T10:42:58;1004.63;;;21.22;51.36
48810;BME280;40070;47.322;18.784;2023-10-08T10:45:03;1004.67;;;21.01;50.96
48810;BME280;40070;47.322;18.784;2023-10-08T10:47:06;1004.71;;;20.75;51.34
48810;BME280;40070;47.322;18.784;2023-10-08T10:49:09;1004.76;;;20.82;51.07
48810;BME280;40070;47.322;18.784;2023-10-08T10:51:11;1004.80;;;20.79;50.77
48810;BME280;40070;47.322;18.784;2023-10-08T10:53:17;1004.85;;;20.77;50.44